Maribel — LAGU6 — position and weather

sailwx.info

Track history (hours):
 
Tides and Currents Weather Stations Pressure Air Temp Water Temp Dewpoint Dewpoint Depression Visibility Wind Speed Wind Dir Waves Ship Positions

Maribel

Last reported at 2017-Sep-21 14:00 UTC. Time now 2017-Sep-21 14:29 UTC.
Position N 39°54' E 001°12'.

Length 229 m; draft 10.3 m.

Type: Ship (hazmat cat A). MMSI: 257872000.

Date/timePositionNaut miles runAvg speedWind from/ knotsBaromVisibWave heightAir tempDewpointWater temp
2017-Sep-21 14:00N 39°54' E 001°12'713.6
2017-Sep-21 13:30N 40°00' E 001°16'713.4
2017-Sep-21 13:00N 40°06' E 001°21'713.1
2017-Sep-21 12:30N 40°12' E 001°26'713.3
2017-Sep-21 12:00N 40°18' E 001°29'713.2
2017-Sep-21 11:30N 40°23' E 001°34'713.1
2017-Sep-21 11:00N 40°29' E 001°38'713.2
2017-Sep-21 10:30N 40°35' E 001°42'613.2
2017-Sep-21 10:01N 40°41' E 001°46'713.4
2017-Sep-21 09:30N 40°47' E 001°50'713.3
2017-Sep-21 09:00N 40°53' E 001°54'713.2
2017-Sep-21 08:30N 40°58' E 001°58'713.6
2017-Sep-21 08:00N 41°04' E 002°02'1013.6
2017-Sep-21 07:18N 41°13' E 002°08'413.2
2017-Sep-21 07:00N 41°16' E 002°11'2 0.0
2017-Sep-19 12:35N 41°18' E 002°11'1 6.7
2017-Sep-19 12:30N 41°18' E 002°11'9 6.9
2017-Sep-19 11:14N 41°13' E 002°21'312.0
2017-Sep-19 11:00N 41°12' E 002°24'914.6
2017-Sep-19 10:23N 41°08' E 002°34'614.8
2017-Sep-19 10:01N 41°05' E 002°41'714.6
2017-Sep-19 09:30N 41°01' E 002°49'714.6
2017-Sep-19 09:00N 40°58' E 002°58'714.5
2017-Sep-19 08:30N 40°54' E 003°06'713.9
2017-Sep-19 08:00N 40°51' E 003°14'713.6
2017-Sep-19 07:30N 40°48' E 003°22'713.4
2017-Sep-19 06:59N 40°44' E 003°30'48513.6
2017-Sep-17 19:12N 36°52' E 012°37'312.9
2017-Sep-17 19:00N 36°50' E 012°39'612.9
2017-Sep-17 18:30N 36°48' E 012°47'713.1
2017-Sep-17 18:00N 36°45' E 012°55'813.2
2017-Sep-17 17:25N 36°43' E 013°04'513.1
2017-Sep-17 17:00N 36°42' E 013°11'612.9
2017-Sep-17 16:30N 36°40' E 013°18'612.8
2017-Sep-17 16:00N 36°38' E 013°26'612.8
2017-Sep-17 15:30N 36°37' E 013°34'813.1
2017-Sep-17 14:52N 36°35' E 013°44'513.2
2017-Sep-17 14:30N 36°34' E 013°50'713.3
2017-Sep-17 14:00N 36°32' E 013°58'713.5
2017-Sep-17 13:30N 36°30' E 014°06'713.6
2017-Sep-17 13:00N 36°28' E 014°14'713.7
2017-Sep-17 12:30N 36°27' E 014°22'713.9
2017-Sep-17 12:00N 36°25' E 014°31'713.9
2017-Sep-17 11:30N 36°23' E 014°39'713.9
2017-Sep-17 11:00N 36°21' E 014°47'713.7
2017-Sep-17 10:30N 36°20' E 014°55'1113.4
2017-Sep-17 09:42N 36°16' E 015°08'913.8
2017-Sep-17 09:05N 36°14' E 015°18'113.5
2017-Sep-17 09:01N 36°14' E 015°19'714.0
2017-Sep-17 08:30N 36°12' E 015°28'714.5
2017-Sep-17 08:00N 36°10' E 015°36'714.5
2017-Sep-17 07:30N 36°08' E 015°45'714.7
2017-Sep-17 07:00N 36°07' E 015°54'814.9
2017-Sep-17 06:28N 36°05' E 016°04'715.0
2017-Sep-17 06:00N 36°03' E 016°12'714.7
2017-Sep-17 05:30N 36°01' E 016°21'714.6
2017-Sep-17 05:00N 35°59' E 016°29'714.2
2017-Sep-17 04:30N 35°57' E 016°38'714.1
2017-Sep-17 04:00N 35°55' E 016°46'714.1
2017-Sep-17 03:30N 35°53' E 016°55'714.2
2017-Sep-17 03:00N 35°51' E 017°03'714.1
2017-Sep-17 02:30N 35°50' E 017°12'714.0
2017-Sep-17 02:00N 35°48' E 017°20'714.1
2017-Sep-17 01:30N 35°46' E 017°28'714.3
2017-Sep-17 01:00N 35°44' E 017°37'714.5
2017-Sep-17 00:30N 35°43' E 017°46'714.5
2017-Sep-17 00:00N 35°40' E 017°54'714.4
2017-Sep-16 23:31N 35°38' E 018°03'714.3
2017-Sep-16 23:00N 35°36' E 018°11'714.2
2017-Sep-16 22:30N 35°35' E 018°20'714.2
2017-Sep-16 22:00N 35°33' E 018°28'714.1
2017-Sep-16 21:30N 35°31' E 018°36'713.9
2017-Sep-16 21:00N 35°29' E 018°45'713.9
2017-Sep-16 20:30N 35°27' E 018°53'714.2
2017-Sep-16 20:00N 35°26' E 019°01'714.3
2017-Sep-16 19:30N 35°24' E 019°10'714.3
2017-Sep-16 19:00N 35°22' E 019°18'714.4
2017-Sep-16 18:30N 35°20' E 019°27'714.4
2017-Sep-16 18:00N 35°18' E 019°35'714.5
2017-Sep-16 17:30N 35°16' E 019°44'714.5
2017-Sep-16 17:00N 35°14' E 019°52'714.6
2017-Sep-16 16:30N 35°12' E 020°01'814.6
2017-Sep-16 15:56N 35°10' E 020°11'65113.7
2017-Sep-14 16:32N 31°26' E 032°21'111.5
2017-Sep-14 16:29N 31°25' E 032°22'510.2
2017-Sep-14 15:58N 31°20' E 032°23'810.0
2017-Sep-14 15:12N 31°13' E 032°21'5 8.5
2017-Sep-14 14:39N 31°08' E 032°19'2 9.7
2017-Sep-14 14:28N 31°07' E 032°19'5 9.7
2017-Sep-14 13:59N 31°02' E 032°19'5 9.2
2017-Sep-14 13:28N 30°57' E 032°19'4 9.0
2017-Sep-14 13:00N 30°53' E 032°19'  
Track history (hours):
 
Tides and Currents Weather Stations Pressure Air Temp Water Temp Dewpoint Dewpoint Depression Visibility Wind Speed Wind Dir Waves Ship Positions

Maribel

Last reported at 2017-Sep-21 14:00 UTC. Time now 2017-Sep-21 14:29 UTC.
Position N 39°54' E 001°12'.

Length 229 m; draft 10.3 m.

Type: Ship (hazmat cat A). MMSI: 257872000.

Date/timePositionNaut miles runAvg speedWind from/ knotsBaromVisibWave heightAir tempDewpointWater temp
2017-Sep-21 14:00N 39°54' E 001°12'713.6
2017-Sep-21 13:30N 40°00' E 001°16'713.4
2017-Sep-21 13:00N 40°06' E 001°21'713.1
2017-Sep-21 12:30N 40°12' E 001°26'713.3
2017-Sep-21 12:00N 40°18' E 001°29'713.2
2017-Sep-21 11:30N 40°23' E 001°34'713.1
2017-Sep-21 11:00N 40°29' E 001°38'713.2
2017-Sep-21 10:30N 40°35' E 001°42'613.2
2017-Sep-21 10:01N 40°41' E 001°46'713.4
2017-Sep-21 09:30N 40°47' E 001°50'713.3
2017-Sep-21 09:00N 40°53' E 001°54'713.2
2017-Sep-21 08:30N 40°58' E 001°58'713.6
2017-Sep-21 08:00N 41°04' E 002°02'1013.6
2017-Sep-21 07:18N 41°13' E 002°08'413.2
2017-Sep-21 07:00N 41°16' E 002°11'2 0.0
2017-Sep-19 12:35N 41°18' E 002°11'1 6.7
2017-Sep-19 12:30N 41°18' E 002°11'9 6.9
2017-Sep-19 11:14N 41°13' E 002°21'312.0
2017-Sep-19 11:00N 41°12' E 002°24'914.6
2017-Sep-19 10:23N 41°08' E 002°34'614.8
2017-Sep-19 10:01N 41°05' E 002°41'714.6
2017-Sep-19 09:30N 41°01' E 002°49'714.6
2017-Sep-19 09:00N 40°58' E 002°58'714.5
2017-Sep-19 08:30N 40°54' E 003°06'713.9
2017-Sep-19 08:00N 40°51' E 003°14'713.6
2017-Sep-19 07:30N 40°48' E 003°22'713.4
2017-Sep-19 06:59N 40°44' E 003°30'48513.6
2017-Sep-17 19:12N 36°52' E 012°37'312.9
2017-Sep-17 19:00N 36°50' E 012°39'612.9
2017-Sep-17 18:30N 36°48' E 012°47'713.1
2017-Sep-17 18:00N 36°45' E 012°55'813.2
2017-Sep-17 17:25N 36°43' E 013°04'513.1
2017-Sep-17 17:00N 36°42' E 013°11'612.9
2017-Sep-17 16:30N 36°40' E 013°18'612.8
2017-Sep-17 16:00N 36°38' E 013°26'612.8
2017-Sep-17 15:30N 36°37' E 013°34'813.1
2017-Sep-17 14:52N 36°35' E 013°44'513.2
2017-Sep-17 14:30N 36°34' E 013°50'713.3
2017-Sep-17 14:00N 36°32' E 013°58'713.5
2017-Sep-17 13:30N 36°30' E 014°06'713.6
2017-Sep-17 13:00N 36°28' E 014°14'713.7
2017-Sep-17 12:30N 36°27' E 014°22'713.9
2017-Sep-17 12:00N 36°25' E 014°31'713.9
2017-Sep-17 11:30N 36°23' E 014°39'713.9
2017-Sep-17 11:00N 36°21' E 014°47'713.7
2017-Sep-17 10:30N 36°20' E 014°55'1113.4
2017-Sep-17 09:42N 36°16' E 015°08'913.8
2017-Sep-17 09:05N 36°14' E 015°18'113.5
2017-Sep-17 09:01N 36°14' E 015°19'714.0
2017-Sep-17 08:30N 36°12' E 015°28'714.5
2017-Sep-17 08:00N 36°10' E 015°36'714.5
2017-Sep-17 07:30N 36°08' E 015°45'714.7
2017-Sep-17 07:00N 36°07' E 015°54'814.9
2017-Sep-17 06:28N 36°05' E 016°04'715.0
2017-Sep-17 06:00N 36°03' E 016°12'714.7
2017-Sep-17 05:30N 36°01' E 016°21'714.6
2017-Sep-17 05:00N 35°59' E 016°29'714.2
2017-Sep-17 04:30N 35°57' E 016°38'714.1
2017-Sep-17 04:00N 35°55' E 016°46'714.1
2017-Sep-17 03:30N 35°53' E 016°55'714.2
2017-Sep-17 03:00N 35°51' E 017°03'714.1
2017-Sep-17 02:30N 35°50' E 017°12'714.0
2017-Sep-17 02:00N 35°48' E 017°20'714.1
2017-Sep-17 01:30N 35°46' E 017°28'714.3
2017-Sep-17 01:00N 35°44' E 017°37'714.5
2017-Sep-17 00:30N 35°43' E 017°46'714.5
2017-Sep-17 00:00N 35°40' E 017°54'714.4
2017-Sep-16 23:31N 35°38' E 018°03'714.3
2017-Sep-16 23:00N 35°36' E 018°11'714.2
2017-Sep-16 22:30N 35°35' E 018°20'714.2
2017-Sep-16 22:00N 35°33' E 018°28'714.1
2017-Sep-16 21:30N 35°31' E 018°36'713.9
2017-Sep-16 21:00N 35°29' E 018°45'713.9
2017-Sep-16 20:30N 35°27' E 018°53'714.2
2017-Sep-16 20:00N 35°26' E 019°01'714.3
2017-Sep-16 19:30N 35°24' E 019°10'714.3
2017-Sep-16 19:00N 35°22' E 019°18'714.4
2017-Sep-16 18:30N 35°20' E 019°27'714.4
2017-Sep-16 18:00N 35°18' E 019°35'714.5
2017-Sep-16 17:30N 35°16' E 019°44'714.5
2017-Sep-16 17:00N 35°14' E 019°52'714.6
2017-Sep-16 16:30N 35°12' E 020°01'814.6
2017-Sep-16 15:56N 35°10' E 020°11'65113.7
2017-Sep-14 16:32N 31°26' E 032°21'111.5
2017-Sep-14 16:29N 31°25' E 032°22'510.2
2017-Sep-14 15:58N 31°20' E 032°23'810.0
2017-Sep-14 15:12N 31°13' E 032°21'5 8.5
2017-Sep-14 14:39N 31°08' E 032°19'2 9.7
2017-Sep-14 14:28N 31°07' E 032°19'5 9.7
2017-Sep-14 13:59N 31°02' E 032°19'5 9.2
2017-Sep-14 13:28N 30°57' E 032°19'4 9.0
2017-Sep-14 13:00N 30°53' E 032°19'  

Dump ship's entire track history